createdAt,value
2022-09-01T00:01:43.721Z,28.70
2022-09-01T00:06:50.234Z,28.70
2022-09-01T00:11:57.471Z,28.70
2022-09-01T00:17:06.151Z,28.60
2022-09-01T00:22:11.714Z,28.20
2022-09-01T00:27:17.046Z,27.10
2022-09-01T00:32:23.170Z,25.90
2022-09-01T00:37:29.290Z,25.10
2022-09-01T00:42:34.683Z,24.80
2022-09-01T00:47:39.857Z,24.60
2022-09-01T00:52:53.740Z,24.60
2022-09-01T00:58:01.870Z,24.50
2022-09-01T01:03:07.507Z,24.60
2022-09-01T01:08:13.750Z,24.60
2022-09-01T01:13:19.731Z,24.70
2022-09-01T01:18:25.078Z,24.60
2022-09-01T01:23:39.197Z,24.70
2022-09-01T01:28:45.796Z,24.80
2022-09-01T01:33:56.010Z,24.80
2022-09-01T01:39:11.134Z,25.00
2022-09-01T01:44:20.153Z,25.00
2022-09-01T01:49:30.569Z,25.00
2022-09-01T01:54:36.255Z,25.00
2022-09-01T01:59:42.413Z,25.10
2022-09-01T02:04:47.520Z,25.10
2022-09-01T02:09:53.815Z,25.30
2022-09-01T02:15:01.965Z,25.20
2022-09-01T02:20:08.331Z,25.30
2022-09-01T02:25:18.189Z,25.40
2022-09-01T02:30:25.354Z,25.50
2022-09-01T02:35:35.715Z,25.60
2022-09-01T02:40:41.993Z,26.10
2022-09-01T02:45:56.982Z,26.40
2022-09-01T02:51:04.994Z,26.80
2022-09-01T02:56:15.714Z,27.20
2022-09-01T03:01:26.178Z,27.10
2022-09-01T03:06:35.649Z,27.30
2022-09-01T03:11:44.072Z,27.40
2022-09-01T03:16:50.379Z,27.60
2022-09-01T03:22:04.695Z,27.40
2022-09-01T03:27:13.355Z,27.10
2022-09-01T03:32:19.036Z,26.90
2022-09-01T03:37:24.862Z,26.60
2022-09-01T03:42:33.724Z,26.40
2022-09-01T03:47:41.828Z,26.50
2022-09-01T03:52:47.721Z,26.60
2022-09-01T03:57:54.139Z,26.90
2022-09-01T04:03:02.839Z,27.10
2022-09-01T04:08:12.856Z,27.20
2022-09-01T04:13:33.455Z,27.20
2022-09-01T04:18:41.574Z,27.30
2022-09-01T04:23:47.629Z,27.40
2022-09-01T04:28:53.341Z,27.40
2022-09-01T04:33:59.875Z,28.00
2022-09-01T04:39:11.860Z,28.90
2022-09-01T04:44:20.398Z,29.10
2022-09-01T04:49:27.926Z,29.60
2022-09-01T04:54:35.210Z,31.00
2022-09-01T04:59:40.889Z,31.50
2022-09-01T05:04:48.774Z,32.80
2022-09-01T05:10:00.571Z,34.30
2022-09-01T05:15:23.205Z,33.90
2022-09-01T05:20:31.663Z,32.90
2022-09-01T05:25:43.613Z,33.10
2022-09-01T05:30:50.678Z,33.00
2022-09-01T05:36:01.393Z,33.10
2022-09-01T05:41:10.134Z,34.10
2022-09-01T05:46:18.540Z,33.00
2022-09-01T05:51:44.026Z,32.40
2022-09-01T05:56:54.977Z,31.90
2022-09-01T06:02:05.609Z,32.00
2022-09-01T06:07:16.348Z,31.60
2022-09-01T06:12:28.499Z,31.50
2022-09-01T06:17:35.266Z,31.30
2022-09-01T06:22:44.567Z,30.90
2022-09-01T06:27:50.356Z,30.50
2022-09-01T06:32:56.792Z,30.70
2022-09-01T06:38:03.468Z,30.70
2022-09-01T06:43:21.579Z,31.10
2022-09-01T06:48:29.106Z,31.30
2022-09-01T06:53:43.100Z,33.00
2022-09-01T06:58:54.046Z,33.00
2022-09-01T07:04:01.418Z,32.80
2022-09-01T07:20:31.208Z,35.30
2022-09-01T07:26:02.379Z,34.70
2022-09-01T07:42:56.125Z,32.70
2022-09-01T07:48:35.944Z,32.60
2022-09-01T07:53:42.785Z,32.50
2022-09-01T07:58:53.008Z,32.40
2022-09-01T08:04:03.926Z,33.30
2022-09-01T08:09:12.259Z,32.40
2022-09-01T08:14:36.163Z,32.10
2022-09-01T08:19:44.884Z,32.50
2022-09-01T08:25:15.436Z,33.20
2022-09-01T08:30:21.712Z,33.30
2022-09-01T08:35:27.625Z,33.20
2022-09-01T08:40:37.314Z,32.90
2022-09-01T08:46:12.611Z,32.60
2022-09-01T08:51:36.201Z,33.10
2022-09-01T08:56:42.762Z,33.20
2022-09-01T09:01:59.707Z,32.90
2022-09-01T09:07:34.816Z,32.50
2022-09-01T09:13:18.252Z,32.00
2022-09-01T09:18:39.915Z,31.60
2022-09-01T09:23:50.429Z,31.40
2022-09-01T09:28:56.822Z,31.30
2022-09-01T09:34:03.367Z,31.10
2022-09-01T09:39:20.647Z,31.10
2022-09-01T09:44:50.507Z,31.10
2022-09-01T09:50:33.346Z,31.20
2022-09-01T09:55:55.876Z,31.10
2022-09-01T10:01:05.250Z,31.20
2022-09-01T10:06:36.406Z,31.30
2022-09-01T10:11:45.567Z,31.40
2022-09-01T10:16:56.439Z,31.40
2022-09-01T10:22:02.650Z,31.10
2022-09-01T10:27:23.835Z,30.80
2022-09-01T10:32:50.672Z,30.40
2022-09-01T10:38:04.608Z,30.00
2022-09-01T10:43:45.726Z,29.70
2022-09-01T10:48:55.294Z,29.40
2022-09-01T10:54:02.969Z,29.20
2022-09-01T11:04:42.469Z,29.00
2022-09-01T11:10:31.005Z,29.00
2022-09-01T11:15:44.943Z,28.90
2022-09-01T11:20:51.937Z,28.90
2022-09-01T11:26:24.547Z,28.80
2022-09-01T11:31:46.130Z,28.80
2022-09-01T11:37:00.488Z,28.90
2022-09-01T11:42:15.935Z,28.90
2022-09-01T11:47:38.532Z,28.90
2022-09-01T11:52:45.129Z,28.90
2022-09-01T11:57:50.778Z,28.90
2022-09-01T12:03:31.238Z,29.00
2022-09-01T12:08:43.149Z,29.10
2022-09-01T12:14:06.639Z,29.10
2022-09-01T12:19:31.890Z,29.10
2022-09-01T12:24:38.771Z,29.10
2022-09-01T12:29:45.325Z,29.00
2022-09-01T12:35:07.406Z,29.00
2022-09-01T12:40:35.802Z,29.00
2022-09-01T12:45:46.464Z,29.00
2022-09-01T12:50:52.635Z,29.00
2022-09-01T12:56:02.747Z,28.90
2022-09-01T13:01:18.566Z,29.00
2022-09-01T13:06:24.280Z,29.00
2022-09-01T13:12:05.713Z,29.10
2022-09-01T13:16:55.695Z,29.00
2022-09-01T13:22:01.910Z,29.00
2022-09-01T13:27:23.374Z,29.00
2022-09-01T13:32:28.922Z,29.00
2022-09-01T13:37:34.391Z,29.00
2022-09-01T13:42:40.173Z,29.00
2022-09-01T13:53:12.942Z,29.00
2022-09-01T13:58:18.555Z,29.00
2022-09-01T14:03:26.427Z,29.00
2022-09-01T14:08:32.974Z,29.00
2022-09-01T14:13:39.481Z,29.00
2022-09-01T14:18:45.375Z,28.90
2022-09-01T14:23:50.875Z,28.90
2022-09-01T14:28:57.336Z,28.90
2022-09-01T14:34:03.507Z,28.90
2022-09-01T14:39:08.887Z,28.90
2022-09-01T14:44:14.474Z,28.90
2022-09-01T14:49:22.587Z,28.90
2022-09-01T14:54:28.401Z,28.90
2022-09-01T14:59:35.008Z,28.90
2022-09-01T15:04:41.157Z,28.90
2022-09-01T15:09:46.524Z,28.80
2022-09-01T15:14:52.270Z,28.80
2022-09-01T15:20:17.721Z,28.70
2022-09-01T15:25:23.363Z,28.70
2022-09-01T15:30:30.020Z,28.70
2022-09-01T15:35:38.680Z,28.80
2022-09-01T15:40:45.081Z,28.80
2022-09-01T15:45:55.914Z,28.90
2022-09-01T15:51:27.417Z,28.80
2022-09-01T15:56:33.893Z,28.90
2022-09-01T16:01:42.603Z,28.80
2022-09-01T16:06:48.700Z,28.90
2022-09-01T16:11:57.359Z,28.80
2022-09-01T16:17:25.402Z,28.80
2022-09-01T16:22:48.182Z,28.80
2022-09-01T16:27:56.523Z,28.80
2022-09-01T16:33:06.479Z,28.80
2022-09-01T16:38:24.347Z,28.80
2022-09-01T16:43:55.221Z,28.70
2022-09-01T16:49:25.438Z,28.70
2022-09-01T16:54:40.614Z,28.70
2022-09-01T17:00:01.991Z,28.70
2022-09-01T17:05:32.614Z,28.70
2022-09-01T17:10:44.310Z,28.70
2022-09-01T17:16:09.503Z,28.60
2022-09-01T17:21:25.543Z,28.50
2022-09-01T17:26:32.948Z,28.60
2022-09-01T17:32:06.527Z,28.50
2022-09-01T17:37:44.812Z,28.50
2022-09-01T17:42:55.365Z,28.50
2022-09-01T17:48:16.973Z,28.40
2022-09-01T17:53:42.581Z,28.40
2022-09-01T17:58:54.575Z,28.40
2022-09-01T18:04:16.216Z,28.40
2022-09-01T18:09:27.448Z,28.40
2022-09-01T18:14:40.480Z,28.30
2022-09-01T18:19:53.114Z,28.40
2022-09-01T18:25:09.609Z,28.30
2022-09-01T18:30:36.303Z,28.30
2022-09-01T18:36:10.129Z,28.30
2022-09-01T18:41:19.551Z,28.30
2022-09-01T18:46:51.280Z,28.20
2022-09-01T18:52:33.692Z,28.20
2022-09-01T18:57:43.172Z,28.00
2022-09-01T19:03:04.225Z,28.00
2022-09-01T19:08:10.051Z,27.90
2022-09-01T19:13:29.639Z,27.90
2022-09-01T19:19:15.300Z,27.80
2022-09-01T19:24:45.465Z,27.80
2022-09-01T19:30:04.602Z,27.80
2022-09-01T19:35:14.911Z,27.80
2022-09-01T19:40:27.533Z,27.80
2022-09-01T19:45:48.629Z,27.90
2022-09-01T19:51:19.867Z,27.90
2022-09-01T19:56:37.456Z,28.00
2022-09-01T20:02:03.181Z,28.00
2022-09-01T20:07:14.192Z,27.90
2022-09-01T20:12:49.506Z,27.80
2022-09-01T20:18:05.845Z,27.70
2022-09-01T20:23:28.209Z,27.70
2022-09-01T20:28:59.957Z,27.60
2022-09-01T20:34:26.771Z,27.70
2022-09-01T20:40:02.972Z,27.60
2022-09-01T20:45:19.337Z,27.60
2022-09-01T20:50:47.365Z,27.70
2022-09-01T20:56:09.883Z,27.60
2022-09-01T21:01:23.677Z,27.60
2022-09-01T21:06:51.220Z,27.50
2022-09-01T21:12:09.691Z,27.50
2022-09-01T21:17:26.374Z,27.50
2022-09-01T21:22:31.548Z,27.50
2022-09-01T21:27:45.425Z,27.50
2022-09-01T21:32:51.171Z,27.50
2022-09-01T21:37:56.340Z,27.50
2022-09-01T21:43:09.760Z,27.50
2022-09-01T21:48:15.467Z,27.50
2022-09-01T21:53:21.582Z,27.40
2022-09-01T21:58:27.144Z,27.40
2022-09-01T22:03:32.764Z,27.40
2022-09-01T22:08:38.516Z,27.40
2022-09-01T22:13:44.728Z,27.50
2022-09-01T22:18:50.761Z,27.50
2022-09-01T22:23:57.126Z,27.50
2022-09-01T22:29:05.334Z,27.60
2022-09-01T22:34:10.867Z,27.50
2022-09-01T22:39:17.369Z,27.50
2022-09-01T22:44:23.217Z,27.40
2022-09-01T22:49:28.764Z,27.30
2022-09-01T22:54:34.008Z,27.30
2022-09-01T22:59:43.449Z,27.30
2022-09-01T23:04:49.957Z,27.30
2022-09-01T23:09:55.501Z,27.30
2022-09-01T23:15:01.119Z,27.30
2022-09-01T23:20:10.578Z,27.30
2022-09-01T23:25:18.879Z,27.40
2022-09-01T23:30:24.298Z,27.50
2022-09-01T23:35:30.156Z,27.60
2022-09-01T23:40:35.593Z,27.50
2022-09-01T23:45:47.650Z,27.50
2022-09-01T23:51:01.317Z,27.60
2022-09-01T23:56:12.810Z,27.70
